Time;durP1;ratioP1;P1;durP2;ratioP2;P2;SDS_P1;SDS_P2;PMS_P1;PMS_P2;Temp;Humidity;BMP_temperature;BMP_pressure;BME280_temperature;BME280_humidity;BME280_pressure;Samples;Min_cycle;Max_cycle;Signal;HPM_P1;HPM_P2
2022/04/15 00:01:37;;;;;;;6.70;4.43;;;;;;;10.57;45.93;100137.63;6096718;23;20045;-87
2022/04/15 00:04:03;;;;;;;8.60;4.57;;;;;;;10.56;46.50;100129.72;6073697;23;20458;-85
2022/04/15 00:06:28;;;;;;;7.90;4.32;;;;;;;10.61;46.25;100138.31;6123617;23;20014;-86
2022/04/15 00:08:54;;;;;;;7.60;4.50;;;;;;;10.66;46.60;100140.56;6122114;23;20033;-86
2022/04/15 00:11:19;;;;;;;6.22;3.95;;;;;;;10.70;45.68;100143.25;6097646;23;20014;-87
2022/04/15 00:13:45;;;;;;;8.60;4.60;;;;;;;10.72;44.10;100141.59;6121447;23;20061;-86
2022/04/15 00:16:11;;;;;;;6.85;3.75;;;;;;;10.65;45.31;100121.59;6098120;23;20041;-85
2022/04/15 00:18:37;;;;;;;7.82;4.35;;;;;;;10.70;45.69;100137.72;6074047;23;20009;-85
2022/04/15 00:21:03;;;;;;;7.55;4.43;;;;;;;10.68;45.13;100142.91;6097362;23;20037;-85
2022/04/15 00:23:30;;;;;;;7.97;4.53;;;;;;;10.60;45.23;100130.41;6121802;23;20077;-86
2022/04/15 00:25:56;;;;;;;6.65;4.82;;;;;;;10.65;46.05;100141.00;6122453;23;20036;-86
2022/04/15 00:28:23;;;;;;;6.55;4.25;;;;;;;10.62;46.72;100130.78;6097200;23;20013;-86
2022/04/15 00:30:49;;;;;;;6.30;4.53;;;;;;;10.64;46.20;100126.34;6121757;23;20041;-86
2022/04/15 00:33:15;;;;;;;6.68;4.40;;;;;;;10.55;45.49;100123.44;6121192;23;20049;-86
2022/04/15 00:35:41;;;;;;;8.93;4.40;;;;;;;10.63;46.07;100141.44;6121508;23;20453;-87
2022/04/15 00:38:06;;;;;;;6.30;4.53;;;;;;;10.62;45.46;100139.09;6097015;23;20014;-86
2022/04/15 00:40:32;;;;;;;6.75;4.80;;;;;;;10.49;44.58;100122.38;6073273;23;20088;-87
2022/04/15 00:42:57;;;;;;;7.60;4.45;;;;;;;10.53;45.74;100119.50;6097046;23;20021;-85
2022/04/15 00:45:23;;;;;;;7.10;5.03;;;;;;;10.58;46.00;100130.09;6122054;23;20014;-86
2022/04/15 00:47:52;;;;;;;5.93;4.40;;;;;;;10.57;47.03;100121.00;6120801;23;20012;-86
2022/04/15 00:50:29;;;;;;;8.18;4.80;;;;;;;10.46;47.21;100111.38;6097252;23;20025;-86
2022/04/15 00:52:58;;;;;;;6.05;4.40;;;;;;;10.50;48.17;100132.25;6120958;23;20073;-86
2022/04/15 00:55:25;;;;;;;8.15;4.50;;;;;;;10.45;48.33;100135.56;6121391;23;20016;-86
2022/04/15 00:57:59;;;;;;;5.90;4.28;;;;;;;10.32;48.06;100112.50;6096738;23;20020;-86
2022/04/15 01:00:26;;;;;;;6.32;4.57;;;;;;;10.27;48.59;100122.09;6096467;23;20018;-86
2022/04/15 01:02:52;;;;;;;6.53;4.47;;;;;;;10.27;47.70;100130.44;6121282;23;20083;-86
2022/04/15 01:05:18;;;;;;;6.35;4.15;;;;;;;10.18;47.91;100115.63;6121648;23;20025;-87
2022/04/15 01:07:51;;;;;;;7.20;4.50;;;;;;;10.27;47.21;100133.19;6121081;23;20141;-85
2022/04/15 01:10:19;;;;;;;6.65;4.53;;;;;;;10.33;47.61;100127.16;6097110;23;20010;-86
2022/04/15 01:12:51;;;;;;;8.00;4.30;;;;;;;10.34;47.54;100134.25;6120634;23;20469;-86
2022/04/15 01:15:18;;;;;;;8.50;4.50;;;;;;;10.29;47.55;100133.56;6097839;23;20013;-86
2022/04/15 01:17:44;;;;;;;7.18;4.50;;;;;;;10.28;48.16;100125.66;6097159;23;20320;-86
2022/04/15 01:20:11;;;;;;;6.45;4.55;;;;;;;10.23;47.89;100132.50;6121712;23;20041;-86
2022/04/15 01:22:42;;;;;;;9.80;4.88;;;;;;;10.20;48.95;100132.59;6121415;23;20009;-87
2022/04/15 01:25:10;;;;;;;7.55;5.03;;;;;;;10.09;49.64;100107.88;6072983;23;20040;-86
2022/04/15 01:27:40;;;;;;;7.53;5.00;;;;;;;10.12;49.61;100109.78;6121346;23;20014;-86
2022/04/15 01:30:10;;;;;;;5.90;4.70;;;;;;;10.17;49.99;100116.84;6096665;23;20346;-86
2022/04/15 01:32:36;;;;;;;8.02;4.85;;;;;;;10.08;47.86;100106.31;6097274;23;20009;-87
2022/04/15 01:35:02;;;;;;;6.65;4.72;;;;;;;10.10;48.61;100109.44;6096925;23;20489;-86
2022/04/15 01:37:30;;;;;;;7.80;4.82;;;;;;;10.19;47.65;100115.19;6097195;23;20025;-86
2022/04/15 01:39:56;;;;;;;6.57;4.50;;;;;;;10.21;48.26;100123.06;6096229;23;20111;-86
2022/04/15 01:42:22;;;;;;;7.20;4.60;;;;;;;10.17;47.82;100120.38;6121550;23;20446;-86
2022/04/15 01:44:47;;;;;;;6.30;4.40;;;;;;;10.14;47.01;100118.47;6097189;23;20033;-86
2022/04/15 01:47:13;;;;;;;6.13;4.78;;;;;;;10.11;47.84;100115.78;6121227;23;20010;-86
2022/04/15 01:49:38;;;;;;;9.70;4.43;;;;;;;10.01;47.64;100095.41;6122633;23;20006;-86
2022/04/15 01:52:05;;;;;;;7.13;4.80;;;;;;;10.14;47.67;100109.34;6096952;23;20042;-86
2022/04/15 01:54:30;;;;;;;8.93;4.65;;;;;;;10.15;48.19;100110.97;6096841;23;20438;-86
2022/04/15 01:56:57;;;;;;;8.45;4.50;;;;;;;10.15;48.54;100111.72;6122879;23;20009;-87
2022/04/15 01:59:22;;;;;;;10.05;5.07;;;;;;;10.14;49.11;100107.38;6121114;23;20014;-86
2022/04/15 02:01:49;;;;;;;9.50;4.93;;;;;;;10.06;49.38;100111.53;6096359;23;20132;-86
2022/04/15 02:04:14;;;;;;;9.63;4.78;;;;;;;9.99;50.28;100092.25;6096764;23;20103;-87
2022/04/15 02:06:40;;;;;;;6.70;4.68;;;;;;;9.94;50.90;100094.78;6097337;23;20013;-86
2022/04/15 02:09:06;;;;;;;6.93;4.95;;;;;;;9.94;51.34;100090.03;6096806;23;20033;-86
2022/04/15 02:11:32;;;;;;;6.50;4.97;;;;;;;9.94;51.59;100106.66;6096950;23;20010;-86
2022/04/15 02:13:58;;;;;;;7.07;4.80;;;;;;;9.79;51.96;100078.47;6096095;23;20017;-86
2022/04/15 02:16:23;;;;;;;7.20;4.68;;;;;;;9.86;53.01;100101.72;6121327;23;20044;-86
2022/04/15 02:18:49;;;;;;;7.07;4.88;;;;;;;9.84;53.03;100091.03;6118780;23;20013;-87
2022/04/15 02:21:14;;;;;;;7.32;4.88;;;;;;;9.77;52.83;100088.44;6095954;23;20430;-87
2022/04/15 02:23:39;;;;;;;9.55;5.10;;;;;;;9.56;53.75;100064.75;6122162;23;20157;-86
2022/04/15 02:26:05;;;;;;;8.13;4.85;;;;;;;9.67;54.79;100075.59;6121911;23;20013;-86
2022/04/15 02:28:30;;;;;;;8.20;5.25;;;;;;;9.69;55.49;100084.28;6122465;23;20455;-87
2022/04/15 02:30:56;;;;;;;11.73;5.20;;;;;;;9.71;56.54;100079.06;6098106;23;20018;-86
2022/04/15 02:33:22;;;;;;;6.68;4.60;;;;;;;9.78;57.44;100081.69;6122329;23;20046;-87
2022/04/15 02:35:48;;;;;;;7.28;5.07;;;;;;;9.71;57.81;100070.75;6097898;23;20206;-87
2022/04/15 02:38:13;;;;;;;8.38;5.22;;;;;;;9.69;58.66;100078.72;6123097;23;20038;-86
2022/04/15 02:40:39;;;;;;;8.25;5.20;;;;;;;9.78;60.18;100088.03;6124050;23;20117;-86
2022/04/15 02:43:06;;;;;;;8.30;5.50;;;;;;;9.84;61.26;100091.03;6123084;23;20010;-86
2022/04/15 02:45:32;;;;;;;9.30;5.47;;;;;;;9.79;62.16;100074.94;6123377;23;20113;-86
2022/04/15 02:47:57;;;;;;;8.55;5.10;;;;;;;9.87;62.06;100084.63;6122043;23;20392;-87
2022/04/15 02:50:23;;;;;;;9.65;6.18;;;;;;;9.89;62.33;100098.84;6098166;23;20454;-86
2022/04/15 02:52:49;;;;;;;8.77;5.95;;;;;;;9.81;62.83;100094.69;6123547;23;20458;-86
2022/04/15 02:55:14;;;;;;;6.53;5.55;;;;;;;9.75;63.96;100082.53;6122355;23;20018;-87
2022/04/15 02:57:40;;;;;;;9.20;5.75;;;;;;;9.70;64.33;100085.84;6097202;23;20021;-86
2022/04/15 03:00:06;;;;;;;8.02;6.10;;;;;;;9.54;64.88;100069.97;6098013;23;20006;-87
2022/04/15 03:02:32;;;;;;;8.32;6.10;;;;;;;9.56;67.71;100075.84;6122185;23;20017;-87
2022/04/15 03:04:58;;;;;;;8.77;5.97;;;;;;;9.56;68.63;100052.91;6122370;23;20387;-86
2022/04/15 03:07:23;;;;;;;8.95;5.63;;;;;;;9.66;68.94;100085.13;6122297;23;20014;-87
2022/04/15 03:09:49;;;;;;;9.32;6.32;;;;;;;9.65;68.74;100078.03;6123717;23;20462;-87
2022/04/15 03:12:14;;;;;;;8.90;5.78;;;;;;;9.60;69.21;100075.75;6097859;23;20002;-86
2022/04/15 03:14:41;;;;;;;9.82;5.70;;;;;;;9.62;68.77;100084.44;6097866;23;20018;-86
2022/04/15 03:17:07;;;;;;;8.50;5.88;;;;;;;9.62;68.05;100081.66;6098269;23;20446;-86
2022/04/15 03:19:33;;;;;;;8.10;5.60;;;;;;;9.58;68.22;100075.44;6098077;23;20346;-86
2022/04/15 03:21:58;;;;;;;8.65;5.85;;;;;;;9.49;69.71;100078.00;6097911;23;20006;-87
2022/04/15 03:24:24;;;;;;;7.00;5.88;;;;;;;9.53;69.65;100087.00;6122082;23;20047;-86
2022/04/15 03:26:50;;;;;;;8.70;5.78;;;;;;;9.54;70.23;100085.81;6097886;23;20013;-86
2022/04/15 03:29:15;;;;;;;6.93;5.45;;;;;;;9.47;70.39;100083.16;6122616;23;20588;-87
2022/04/15 03:31:41;;;;;;;8.15;6.03;;;;;;;9.45;71.30;100080.06;6122356;23;20006;-86
2022/04/15 03:34:07;;;;;;;8.52;5.70;;;;;;;9.49;71.56;100091.84;6122065;23;20040;-86
2022/04/15 03:36:32;;;;;;;10.52;6.93;;;;;;;9.41;72.24;100082.91;6123548;23;20339;-86
2022/04/15 03:38:58;;;;;;;10.93;7.00;;;;;;;9.45;73.55;100094.69;6097379;23;20309;-87
2022/04/15 03:41:23;;;;;;;9.88;6.80;;;;;;;9.49;73.40;100086.31;6121991;23;20014;-86
2022/04/15 03:43:52;;;;;;;9.23;6.80;;;;;;;9.46;72.70;100092.69;6122187;23;20030;-86
2022/04/15 03:46:19;;;;;;;10.60;6.53;;;;;;;9.31;73.09;100072.81;6098148;23;20112;-86
2022/04/15 03:48:45;;;;;;;10.05;6.95;;;;;;;9.15;75.48;100068.00;6121930;23;20076;-87
2022/04/15 03:51:11;;;;;;;10.38;6.53;;;;;;;9.23;74.58;100091.56;6121620;23;20033;-86
2022/04/15 03:53:37;;;;;;;10.68;6.65;;;;;;;9.23;75.83;100085.25;6073345;23;20009;-86
2022/04/15 03:56:03;;;;;;;10.23;6.63;;;;;;;9.24;74.53;100098.66;6073033;23;20025;-86
2022/04/15 03:58:29;;;;;;;12.50;6.70;;;;;;;9.15;77.04;100084.63;6074000;23;20094;-86
2022/04/15 04:00:55;;;;;;;12.13;6.05;;;;;;;9.14;73.85;100099.66;6097479;23;20030;-87
2022/04/15 04:03:21;;;;;;;8.45;6.30;;;;;;;8.87;74.23;100077.66;6097540;23;20018;-86
2022/04/15 04:05:47;;;;;;;9.35;6.13;;;;;;;9.06;73.68;100109.31;6123630;23;20507;-85
2022/04/15 04:08:12;;;;;;;9.00;6.30;;;;;;;8.96;74.16;100110.28;6123012;23;20394;-86
2022/04/15 04:10:38;;;;;;;9.77;6.40;;;;;;;8.94;74.06;100112.69;6073367;23;20054;-86
2022/04/15 04:13:03;;;;;;;10.10;6.43;;;;;;;8.69;73.78;100084.72;6096857;23;20443;-86
2022/04/15 04:15:30;;;;;;;9.23;6.72;;;;;;;8.89;73.94;100124.28;6123380;23;20024;-86
2022/04/15 04:17:56;;;;;;;8.35;6.53;;;;;;;8.80;76.88;100099.13;6097449;23;20416;-85
2022/04/15 04:20:22;;;;;;;9.75;6.57;;;;;;;8.77;78.79;100094.47;6120709;23;20014;-85
2022/04/15 04:22:48;;;;;;;12.57;7.35;;;;;;;8.95;81.48;100103.19;6095461;23;20014;-86
2022/04/15 04:25:13;;;;;;;8.43;6.18;;;;;;;9.10;79.78;100115.53;6071062;23;20026;-85
2022/04/15 04:27:41;;;;;;;10.98;6.45;;;;;;;9.24;80.02;100120.03;6070323;23;19998;-86
2022/04/15 04:30:07;;;;;;;12.20;6.95;;;;;;;9.38;83.01;100124.50;6096866;23;20447;-86
2022/04/15 04:32:33;;;;;;;9.77;6.85;;;;;;;9.38;81.85;100109.44;6072759;23;20115;-85
2022/04/15 04:34:59;;;;;;;10.10;6.55;;;;;;;9.44;80.75;100106.19;6072111;23;20067;-87
2022/04/15 04:37:24;;;;;;;10.73;6.60;;;;;;;9.60;81.14;100122.84;6071938;23;20009;-86
2022/04/15 04:39:50;;;;;;;8.90;7.13;;;;;;;9.67;81.75;100126.22;6096114;23;20096;-88
2022/04/15 04:42:17;;;;;;;11.02;7.63;;;;;;;9.58;82.30;100092.03;6048844;23;20010;-87
2022/04/15 04:44:43;;;;;;;12.18;7.20;;;;;;;9.78;82.12;100124.03;6072700;23;20013;-89
2022/04/15 04:47:09;;;;;;;9.25;7.10;;;;;;;9.87;83.34;100131.72;6072961;23;20041;-87
2022/04/15 04:49:36;;;;;;;9.55;7.05;;;;;;;9.88;83.16;100135.28;6049735;23;20399;-88
2022/04/15 04:52:03;;;;;;;9.27;7.20;;;;;;;9.94;82.24;100144.66;6072740;23;20014;-88
2022/04/15 04:54:29;;;;;;;9.75;7.47;;;;;;;9.88;82.22;100143.59;6072837;23;20022;-88
2022/04/15 04:56:55;;;;;;;11.30;7.75;;;;;;;9.93;82.20;100154.97;6071938;23;20511;-87
2022/04/15 04:59:22;;;;;;;10.27;7.80;;;;;;;9.89;82.43;100137.63;6046328;23;20048;-87
2022/04/15 05:01:48;;;;;;;11.63;7.97;;;;;;;9.90;82.71;100144.75;6071048;23;20698;-88
2022/04/15 05:04:13;;;;;;;13.05;8.13;;;;;;;10.00;83.05;100167.88;6047634;23;20097;-89
2022/04/15 05:06:39;;;;;;;11.35;9.57;;;;;;;10.06;84.70;100175.25;6070772;23;20085;-88
2022/04/15 05:09:04;;;;;;;12.20;8.93;;;;;;;10.06;84.78;100178.03;6069053;23;20044;-86
2022/04/15 05:11:30;;;;;;;10.60;8.45;;;;;;;9.97;83.54;100152.91;6045699;23;20021;-87
2022/04/15 05:13:55;;;;;;;13.25;8.75;;;;;;;10.09;79.54;100168.06;6069499;23;20010;-88
2022/04/15 05:16:21;;;;;;;10.85;7.63;;;;;;;9.94;76.35;100139.91;6070246;23;20048;-88
2022/04/15 05:18:46;;;;;;;11.38;7.90;;;;;;;10.13;74.67;100175.09;6069972;23;20013;-87
2022/04/15 05:21:13;;;;;;;10.85;8.05;;;;;;;10.01;72.94;100178.53;6094542;23;20026;-88
2022/04/15 05:23:39;;;;;;;9.35;7.78;;;;;;;9.94;71.77;100178.69;6048244;23;20025;-87
2022/04/15 05:26:05;;;;;;;11.55;8.15;;;;;;;9.81;71.97;100159.19;6095829;23;20089;-88
2022/04/15 05:28:35;;;;;;;11.18;7.22;;;;;;;9.87;72.32;100173.28;6048038;23;20018;-88
2022/04/15 05:31:04;;;;;;;10.80;8.00;;;;;;;9.83;73.75;100173.38;6048373;23;20021;-88
2022/04/15 05:33:31;;;;;;;11.63;7.70;;;;;;;10.02;73.21;100182.88;6097039;23;20006;-88
2022/04/15 05:35:56;;;;;;;13.52;7.82;;;;;;;10.14;73.14;100190.53;6048950;23;20017;-88
2022/04/15 05:38:22;;;;;;;10.18;7.60;;;;;;;10.25;74.17;100185.53;6049240;23;20025;-90
2022/04/15 05:40:47;;;;;;;11.90;7.80;;;;;;;10.40;73.22;100190.75;6096988;23;20014;-89
2022/04/15 05:43:13;;;;;;;10.00;7.90;;;;;;;10.56;76.37;100191.53;6097312;23;20014;-88
2022/04/15 05:45:38;;;;;;;8.38;6.88;;;;;;;10.77;79.01;100193.00;6049882;23;20029;-88
2022/04/15 05:48:04;;;;;;;10.75;8.15;;;;;;;10.82;76.75;100172.28;6072728;23;20025;-87
2022/04/15 05:50:30;;;;;;;16.33;11.15;;;;;;;11.12;75.96;100191.34;6097021;23;20077;-87
2022/04/15 05:52:55;;;;;;;26.48;14.77;;;;;;;11.39;73.45;100202.88;6070574;23;20018;-86
2022/04/15 05:55:21;;;;;;;20.08;14.20;;;;;;;11.57;73.44;100207.94;6047564;23;20076;-88
2022/04/15 05:57:46;;;;;;;12.75;9.32;;;;;;;11.77;70.79;100216.91;6072305;23;20680;-87
2022/04/15 06:00:12;;;;;;;11.07;7.28;;;;;;;11.87;69.27;100210.28;6050203;23;20435;-87
2022/04/15 06:02:38;;;;;;;11.68;6.68;;;;;;;12.09;62.14;100222.31;6074231;23;20530;-87
2022/04/15 06:05:04;;;;;;;8.57;6.70;;;;;;;12.11;58.20;100219.88;6098560;23;20013;-86
2022/04/15 06:07:30;;;;;;;9.75;6.28;;;;;;;12.22;59.03;100224.34;6100541;23;20018;-89
2022/04/15 06:09:56;;;;;;;10.05;5.97;;;;;;;12.43;58.84;100221.69;6122737;23;20020;-89
2022/04/15 06:12:22;;;;;;;9.05;6.47;;;;;;;12.53;60.16;100217.03;6122423;23;20070;-88
2022/04/15 06:14:49;;;;;;;9.40;6.50;;;;;;;12.79;58.80;100218.53;6121824;23;20451;-88
2022/04/15 06:17:21;;;;;;;10.65;6.88;;;;;;;12.82;54.08;100202.97;6120494;23;20010;-87
2022/04/15 06:19:47;;;;;;;9.80;6.47;;;;;;;13.08;52.56;100218.38;6121143;23;20045;-86
2022/04/15 06:22:13;;;;;;;9.43;6.40;;;;;;;13.26;50.45;100229.72;6121164;23;20037;-87
2022/04/15 06:24:38;;;;;;;9.27;7.38;;;;;;;13.23;48.99;100227.03;6094790;23;20029;-88
2022/04/15 06:27:04;;;;;;;11.73;7.00;;;;;;;13.25;48.71;100216.25;6070155;23;20017;-88
2022/04/15 06:29:29;;;;;;;14.30;9.02;;;;;;;13.41;46.75;100241.16;6094155;23;20022;-88
2022/04/15 06:31:55;;;;;;;12.90;11.60;;;;;;;13.51;46.88;100223.25;6095350;23;20010;-90
2022/04/15 06:34:21;;;;;;;13.13;11.02;;;;;;;13.67;47.61;100233.47;6119472;23;20141;-90
2022/04/15 06:36:47;;;;;;;11.63;9.90;;;;;;;13.92;48.35;100236.88;6119386;23;20081;-89
2022/04/15 06:39:13;;;;;;;10.68;6.65;;;;;;;14.24;47.12;100229.31;6119817;23;20380;-90
2022/04/15 06:41:40;;;;;;;9.52;6.30;;;;;;;14.51;45.42;100229.47;6121334;23;20024;-90
2022/04/15 06:44:06;;;;;;;8.48;6.25;;;;;;;14.79;45.02;100241.53;6120263;23;20017;-89
2022/04/15 06:46:32;;;;;;;12.35;6.63;;;;;;;14.91;45.53;100221.06;6071859;23;20051;-90
2022/04/15 06:48:57;;;;;;;10.77;6.72;;;;;;;15.36;43.97;100231.53;6119707;23;20009;-91
2022/04/15 06:51:25;;;;;;;10.60;7.07;;;;;;;15.71;44.27;100243.97;6119650;23;20434;-90
2022/04/15 06:53:51;;;;;;;9.88;7.90;;;;;;;15.86;45.12;100233.72;6069849;23;20018;-90
2022/04/15 06:56:16;;;;;;;13.75;8.85;;;;;;;15.91;46.10;100231.53;6095642;23;20014;-91
2022/04/15 06:58:42;;;;;;;14.68;10.88;;;;;;;15.91;47.55;100232.31;6071239;23;20017;-91
2022/04/15 07:01:07;;;;;;;14.45;10.35;;;;;;;15.86;48.94;100222.50;6095118;23;20021;-91
2022/04/15 07:03:33;;;;;;;17.25;10.57;;;;;;;15.86;49.77;100233.72;6095341;23;20093;-90
2022/04/15 07:05:58;;;;;;;12.45;11.13;;;;;;;15.97;50.67;100232.47;6118963;23;20089;-91
2022/04/15 07:08:24;;;;;;;14.82;11.02;;;;;;;16.04;51.18;100232.13;6095091;23;20013;-91
2022/04/15 07:10:49;;;;;;;14.73;11.63;;;;;;;16.09;50.71;100242.69;6094582;23;20489;-91
2022/04/15 07:13:15;;;;;;;14.90;11.05;;;;;;;16.12;50.68;100233.34;6095301;23;20009;-91
2022/04/15 07:15:40;;;;;;;13.95;11.07;;;;;;;16.14;50.88;100248.41;6119827;23;20056;-90
2022/04/15 07:18:06;;;;;;;16.67;11.23;;;;;;;15.92;51.26;100241.47;6118922;23;20343;-90
2022/04/15 07:20:31;;;;;;;12.73;10.55;;;;;;;15.95;51.65;100240.53;6119207;23;20014;-90
2022/04/15 07:22:58;;;;;;;14.68;11.10;;;;;;;15.90;52.11;100232.75;6118976;23;20021;-89
2022/04/15 07:25:24;;;;;;;13.52;11.25;;;;;;;16.11;52.01;100231.78;6093905;23;20046;-90
2022/04/15 07:27:50;;;;;;;13.65;12.20;;;;;;;16.03;51.32;100211.75;6070152;23;20014;-89
2022/04/15 07:30:17;;;;;;;14.07;12.68;;;;;;;16.06;52.45;100224.03;6071173;23;20085;-90
2022/04/15 07:32:44;;;;;;;16.90;12.05;;;;;;;16.19;53.05;100230.22;6071453;23;20049;-89
2022/04/15 07:35:09;;;;;;;14.70;12.32;;;;;;;16.33;53.02;100232.38;6070450;23;20028;-91
2022/04/15 07:37:35;;;;;;;17.77;12.30;;;;;;;16.44;52.56;100207.44;6094802;23;20045;-90
2022/04/15 07:40:01;;;;;;;17.63;13.10;;;;;;;16.61;51.65;100225.44;6119162;23;20010;-89
2022/04/15 07:42:26;;;;;;;14.52;12.05;;;;;;;16.70;51.64;100219.03;6120598;23;19998;-91
2022/04/15 07:44:52;;;;;;;13.55;11.80;;;;;;;17.13;51.32;100224.03;6120788;23;20018;-90
2022/04/15 07:47:17;;;;;;;14.98;12.07;;;;;;;17.31;50.70;100214.72;6095451;23;20490;-90
2022/04/15 07:49:43;;;;;;;13.27;11.93;;;;;;;17.55;50.60;100223.13;6118029;23;20052;-91
2022/04/15 07:52:08;;;;;;;14.57;11.15;;;;;;;17.84;50.18;100205.56;6070094;23;20065;-91
2022/04/15 07:54:34;;;;;;;16.58;11.02;;;;;;;18.28;47.03;100217.53;6094521;23;20028;-92
2022/04/15 07:57:01;;;;;;;284.30;85.85;;;;;;;18.44;46.27;100219.09;6069497;23;20664;-90
2022/04/15 07:59:27;;;;;;;13.82;10.73;;;;;;;18.34;43.65;100215.63;6092287;23;20040;-90
2022/04/15 08:01:53;;;;;;;14.77;10.80;;;;;;;18.14;45.00;100218.34;6095914;23;20332;-91
2022/04/15 08:04:20;;;;;;;15.43;10.68;;;;;;;18.00;45.05;100238.75;6117173;23;20024;-91
2022/04/15 08:06:45;;;;;;;15.40;10.77;;;;;;;17.57;45.46;100214.97;6093682;23;20454;-89
2022/04/15 08:09:11;;;;;;;14.77;10.60;;;;;;;17.24;46.86;100215.09;6118124;23;20493;-90
2022/04/15 08:11:36;;;;;;;13.38;10.75;;;;;;;17.27;48.22;100221.78;6120415;23;20036;-89
2022/04/15 08:14:02;;;;;;;15.88;11.02;;;;;;;17.70;48.12;100227.53;6070641;23;20031;-90
2022/04/15 08:16:28;;;;;;;17.75;11.40;;;;;;;18.14;48.08;100218.34;6095617;23;20014;-91
2022/04/15 08:18:56;;;;;;;13.75;11.55;;;;;;;18.25;46.18;100210.09;6070582;23;20022;-90
2022/04/15 08:21:22;;;;;;;12.95;10.82;;;;;;;18.15;46.32;100211.47;6121733;23;20013;-91
2022/04/15 08:23:47;;;;;;;17.77;10.40;;;;;;;18.31;43.03;100216.59;6069442;23;20069;-92
2022/04/15 08:26:13;;;;;;;15.90;9.75;;;;;;;18.60;41.89;100210.94;6122188;23;20010;-93
2022/04/15 08:28:39;;;;;;;12.88;9.95;;;;;;;18.86;41.01;100205.44;6119030;23;20017;-90
2022/04/15 08:31:04;;;;;;;12.18;10.07;;;;;;;18.87;38.68;100189.34;6121444;23;20109;-91
2022/04/15 08:33:30;;;;;;;13.63;10.02;;;;;;;19.04;38.52;100204.41;6117930;23;20057;-90
2022/04/15 08:35:56;;;;;;;13.80;9.18;;;;;;;19.03;35.61;100192.41;6119360;23;20077;-91
2022/04/15 08:38:21;;;;;;;22.10;10.30;;;;;;;19.01;36.02;100205.38;6094804;23;20068;-93
2022/04/15 08:40:50;;;;;;;14.13;9.75;;;;;;;19.20;36.92;100211.50;6094904;23;20355;-90
2022/04/15 08:43:16;;;;;;;13.00;9.35;;;;;;;19.62;36.23;100199.75;6118901;23;20021;-90
2022/04/15 08:45:42;;;;;;;18.05;9.98;;;;;;;19.88;35.62;100225.88;6071479;23;20018;-92
2022/04/15 08:48:08;;;;;;;14.85;9.63;;;;;;;20.07;34.46;100215.81;6094410;23;20089;-92
2022/04/15 08:50:34;;;;;;;17.40;9.85;;;;;;;20.06;34.29;100199.44;6071682;23;20088;-90
2022/04/15 08:53:00;;;;;;;15.20;9.82;;;;;;;19.99;34.95;100195.78;6118711;23;20037;-91
2022/04/15 08:55:29;;;;;;;15.13;10.68;;;;;;;19.90;35.59;100207.19;6119659;23;20021;-91
2022/04/15 08:57:55;;;;;;;12.73;9.82;;;;;;;19.11;36.05;100209.63;6094295;23;20097;-90
2022/04/15 09:00:22;;;;;;;16.15;10.02;;;;;;;18.68;36.17;100227.41;6119262;23;20409;-90
2022/04/15 09:02:49;;;;;;;15.43;10.70;;;;;;;18.17;37.20;100234.22;6073048;23;20196;-90
2022/04/15 09:05:19;;;;;;;11.70;9.07;;;;;;;17.84;38.43;100228.00;6093686;23;20021;-90
2022/04/15 09:07:45;;;;;;;14.63;10.02;;;;;;;17.69;39.07;100231.56;6118136;23;20010;-90
2022/04/15 09:10:12;;;;;;;17.00;10.35;;;;;;;17.61;39.34;100229.63;6119468;23;20069;-90
2022/04/15 09:12:39;;;;;;;14.95;10.10;;;;;;;17.61;40.44;100227.59;6120107;23;20010;-90
2022/04/15 09:15:08;;;;;;;16.90;10.73;;;;;;;17.70;40.48;100230.31;6120591;23;20056;-90
2022/04/15 09:17:38;;;;;;;14.75;10.00;;;;;;;17.77;40.04;100234.00;6118674;23;20013;-91
2022/04/15 09:20:05;;;;;;;12.70;9.32;;;;;;;17.77;40.58;100242.41;6119148;23;20093;-89
2022/04/15 09:22:30;;;;;;;12.55;9.52;;;;;;;17.53;40.92;100242.44;6070430;23;20026;-91
2022/04/15 09:24:56;;;;;;;15.30;9.70;;;;;;;17.56;41.23;100253.47;6095824;23;20013;-92
2022/04/15 09:27:25;;;;;;;13.98;9.40;;;;;;;17.45;40.60;100270.06;6118651;23;20024;-89
2022/04/15 09:29:52;;;;;;;17.40;10.00;;;;;;;17.31;40.82;100270.78;6120793;23;20013;-89
2022/04/15 09:32:18;;;;;;;11.43;8.93;;;;;;;17.30;40.08;100285.28;6117754;23;20439;-90
2022/04/15 09:34:54;;;;;;;15.13;9.82;;;;;;;17.25;40.45;100283.91;6120704;23;20073;-90
2022/04/15 09:37:21;;;;;;;12.07;8.50;;;;;;;17.20;40.94;100271.34;6120995;23;20014;-91
2022/04/15 09:40:12;;;;;;;14.32;8.93;;;;;;;17.25;41.91;100287.50;6120116;23;20016;-90
2022/04/15 09:42:58;;;;;;;12.65;9.13;;;;;;;17.25;42.52;100283.91;6121583;23;20014;-90
2022/04/15 09:45:30;;;;;;;12.65;9.40;;;;;;;17.20;42.91;100282.53;6120122;23;20025;-90
2022/04/15 09:47:58;;;;;;;12.50;8.60;;;;;;;17.23;43.70;100286.41;6121797;23;20010;-90
2022/04/15 09:50:25;;;;;;;14.27;8.38;;;;;;;17.29;43.11;100298.53;6121974;23;20328;-91
2022/04/15 09:52:54;;;;;;;12.77;8.57;;;;;;;17.25;43.03;100312.72;6112648;23;20048;-90
2022/04/15 09:55:20;;;;;;;11.32;8.90;;;;;;;17.18;44.10;100317.91;6095794;23;20013;-91
2022/04/15 09:57:49;;;;;;;14.13;8.85;;;;;;;17.24;44.38;100316.00;6094594;23;20024;-89
2022/04/15 10:00:16;;;;;;;12.70;8.10;;;;;;;17.35;44.64;100321.84;6119802;23;20446;-90
2022/04/15 10:02:42;;;;;;;10.38;7.80;;;;;;;17.27;45.06;100331.88;6118517;23;20018;-90
2022/04/15 10:05:08;;;;;;;11.85;8.05;;;;;;;17.19;45.53;100311.03;6095080;23;20438;-90
2022/04/15 10:07:34;;;;;;;9.63;7.60;;;;;;;17.29;45.36;100337.78;6118481;23;20010;-90
2022/04/15 10:10:01;;;;;;;11.40;8.23;;;;;;;17.19;45.46;100330.66;6095384;23;20101;-90
2022/04/15 10:12:28;;;;;;;12.43;8.77;;;;;;;17.18;46.09;100340.34;6119299;23;20057;-90
2022/04/15 10:14:54;;;;;;;12.65;8.90;;;;;;;17.15;46.37;100336.44;6093021;23;20112;-90
2022/04/15 10:17:22;;;;;;;13.73;8.55;;;;;;;17.15;46.46;100341.28;6070976;23;20033;-90
2022/04/15 10:19:49;;;;;;;9.93;8.55;;;;;;;17.05;46.71;100345.38;6120659;23;20029;-90
2022/04/15 10:22:15;;;;;;;13.68;9.55;;;;;;;16.97;46.31;100358.19;6094403;23;20009;-90
2022/04/15 10:24:41;;;;;;;12.50;8.90;;;;;;;16.91;47.27;100337.66;6119131;23;20022;-90
2022/04/15 10:27:07;;;;;;;12.73;8.88;;;;;;;16.88;47.84;100327.41;6118403;23;20451;-89
2022/04/15 10:29:32;;;;;;;11.73;9.38;;;;;;;16.96;47.80;100323.78;6118698;23;20009;-91
2022/04/15 10:32:11;;;;;;;10.77;8.95;;;;;;;17.21;47.86;100322.56;6118997;23;20093;-90
2022/04/15 10:34:47;;;;;;;11.65;8.88;;;;;;;17.29;48.61;100308.97;6118421;23;20025;-90
2022/04/15 10:37:12;;;;;;;11.88;8.75;;;;;;;17.40;48.58;100323.22;6094550;23;20741;-90
2022/04/15 10:39:47;;;;;;;13.77;8.90;;;;;;;17.22;49.01;100332.53;6119153;23;20209;-91
2022/04/15 10:42:18;;;;;;;11.75;8.48;;;;;;;16.98;49.45;100332.50;6119303;23;20013;-90
2022/04/15 10:44:44;;;;;;;10.43;8.65;;;;;;;16.63;50.43;100348.16;6095753;23;20403;-90
2022/04/15 10:47:27;;;;;;;11.48;8.23;;;;;;;16.47;51.63;100354.88;6118833;23;20013;-90
2022/04/15 10:49:54;;;;;;;;;;;;;;;16.37;52.80;100352.56;6119560;23;20014;-90
2022/04/15 10:52:24;;;;;;;12.25;8.80;;;;;;;16.22;52.87;100342.00;6118892;23;19912;-90
2022/04/15 10:54:56;;;;;;;12.13;8.10;;;;;;;16.31;53.83;100363.59;6094483;23;20090;-90
2022/04/15 10:57:22;;;;;;;11.88;8.25;;;;;;;16.10;54.69;100354.13;6115360;23;20362;-90
2022/04/15 11:02:45;;;;;;;13.48;8.48;;;;;;;15.98;57.08;100351.50;6118780;23;20305;-91
2022/04/15 11:05:15;;;;;;;11.93;8.85;;;;;;;15.94;57.61;100346.06;6119041;23;20039;-91
2022/04/15 11:07:46;;;;;;;11.55;8.00;;;;;;;16.01;58.26;100345.78;6117265;23;20057;-91
2022/04/15 11:10:50;;;;;;;10.70;7.78;;;;;;;16.03;58.55;100336.88;6119503;23;20081;-91
2022/04/15 11:13:24;;;;;;;10.02;7.30;;;;;;;16.11;58.83;100335.34;6121250;23;20018;-89
2022/04/15 11:15:58;;;;;;;10.40;6.80;;;;;;;16.10;58.77;100336.56;6121487;23;20025;-91
2022/04/15 11:18:23;;;;;;;;;;;;;;;15.94;59.41;100322.91;6121385;23;20018;-90
2022/04/15 11:20:49;;;;;;;9.88;5.38;;;;;;;15.79;59.41;100311.56;6094945;23;19937;-89
2022/04/15 11:23:15;;;;;;;8.25;5.93;;;;;;;15.85;60.38;100316.06;6095372;23;20116;-89